Terminal Aerodrome Forecast
Issued by NWS

Home | Current Version | Previous Version | Text Only | Print | Product List | Glossary On
Versions: 1 2 3 4 5 6 7 8 9 10 11 12 13 14
000
FTAK31 PAJN 301700
TAFAJN
TAF
PAJN 301736Z 3018/3118 08005KT 6SM -RA BR BKN035 OVC050
     FM310200 12008KT 6SM -SHRA BR SCT015 OVC025
     FM310600 10006KT P6SM VCSH BKN025 OVC040
     FM311500 09010KT P6SM -SHRA SCT025 OVC050=

USA.gov is the U.S. government's official web portal to all federal, state and local government web resources and services.